createdAt,value
2017-01-17T00:00:08.811Z,0
2017-01-17T00:01:14.989Z,0
2017-01-17T00:02:19.211Z,0
2017-01-17T00:03:24.376Z,0
2017-01-17T00:04:29.569Z,0
2017-01-17T00:05:35.745Z,0
2017-01-17T00:06:39.021Z,0
2017-01-17T00:07:43.220Z,0
2017-01-17T00:08:49.402Z,0
2017-01-17T00:09:55.562Z,0
2017-01-17T00:11:01.727Z,0
2017-01-17T00:12:07.896Z,0
2017-01-17T00:13:13.060Z,0
2017-01-17T00:14:18.248Z,0
2017-01-17T00:15:24.405Z,0
2017-01-17T00:16:30.676Z,0
2017-01-17T00:17:35.464Z,0
2017-01-17T00:18:39.694Z,0
2017-01-17T00:19:44.890Z,0
2017-01-17T00:21:55.943Z,0
2017-01-17T00:23:01.143Z,0
2017-01-17T00:24:06.310Z,0
2017-01-17T00:25:11.500Z,0
2017-01-17T00:26:16.699Z,0
2017-01-17T00:27:21.857Z,0
2017-01-17T00:28:28.013Z,0
2017-01-17T00:29:34.193Z,0
2017-01-17T00:30:40.470Z,0
2017-01-17T00:31:46.602Z,0
2017-01-17T00:32:52.762Z,0
2017-01-17T00:33:58.935Z,0
2017-01-17T00:35:05.115Z,0
2017-01-17T00:36:11.274Z,0
2017-01-17T00:37:17.438Z,0
2017-01-17T00:38:22.948Z,0
2017-01-17T00:39:28.153Z,0
2017-01-17T00:40:34.323Z,0
2017-01-17T00:41:40.488Z,0
2017-01-17T00:42:46.663Z,0
2017-01-17T00:43:52.849Z,0
2017-01-17T00:44:58.990Z,0
2017-01-17T00:46:04.188Z,0
2017-01-17T00:47:10.344Z,0
2017-01-17T00:48:15.506Z,0
2017-01-17T00:49:20.673Z,0
2017-01-17T00:50:26.950Z,0
2017-01-17T00:51:33.112Z,0
2017-01-17T00:52:38.283Z,0
2017-01-17T00:53:44.440Z,0
2017-01-17T00:54:50.610Z,0
2017-01-17T00:55:54.956Z,0
2017-01-17T00:57:01.128Z,0
2017-01-17T00:58:06.399Z,0
2017-01-17T00:59:12.604Z,0
2017-01-17T01:00:18.759Z,0
2017-01-17T01:01:24.922Z,0
2017-01-17T01:02:31.075Z,0
2017-01-17T01:03:37.244Z,0
2017-01-17T01:04:43.419Z,0
2017-01-17T01:05:49.585Z,0
2017-01-17T01:06:54.780Z,0
2017-01-17T01:08:00.973Z,0
2017-01-17T01:09:07.135Z,0
2017-01-17T01:10:12.328Z,0
2017-01-17T01:11:18.498Z,0
2017-01-17T01:12:21.745Z,0
2017-01-17T01:13:25.970Z,0
2017-01-17T01:14:30.284Z,0
2017-01-17T01:15:34.483Z,0
2017-01-17T01:16:40.673Z,0
2017-01-17T01:17:44.939Z,0
2017-01-17T01:18:51.096Z,0
2017-01-17T01:19:56.292Z,0
2017-01-17T01:21:02.459Z,0
2017-01-17T01:22:07.627Z,0
2017-01-17T01:23:13.779Z,0
2017-01-17T01:24:18.978Z,0
2017-01-17T01:25:25.137Z,0
2017-01-17T01:26:30.299Z,0
2017-01-17T01:27:34.501Z,0
2017-01-17T01:28:39.693Z,0
2017-01-17T01:29:44.857Z,0
2017-01-17T01:30:51.017Z,0
2017-01-17T01:31:57.178Z,0
2017-01-17T01:33:03.344Z,0
2017-01-17T01:34:06.683Z,0
2017-01-17T01:35:10.881Z,0
2017-01-17T01:36:17.112Z,0
2017-01-17T01:37:23.274Z,0
2017-01-17T01:38:28.480Z,0
2017-01-17T01:39:34.643Z,0
2017-01-17T01:40:39.841Z,0
2017-01-17T01:41:44.040Z,0
2017-01-17T01:42:50.258Z,0
2017-01-17T01:43:54.445Z,0
2017-01-17T01:44:59.666Z,0
2017-01-17T01:46:05.792Z,0
2017-01-17T01:47:10.984Z,0
2017-01-17T01:48:17.160Z,0
2017-01-17T01:49:23.321Z,0
2017-01-17T01:50:29.495Z,0
2017-01-17T01:51:35.660Z,0
2017-01-17T01:52:41.830Z,0
2017-01-17T01:53:47.037Z,0
2017-01-17T01:54:51.307Z,0
2017-01-17T01:55:56.478Z,0
2017-01-17T01:57:01.660Z,0
2017-01-17T01:58:06.853Z,0
2017-01-17T01:59:12.053Z,0
2017-01-17T02:00:17.253Z,0
2017-01-17T02:01:22.495Z,0
2017-01-17T02:02:28.613Z,0
2017-01-17T02:03:32.806Z,0
2017-01-17T02:04:38.004Z,0
2017-01-17T02:05:42.658Z,0
2017-01-17T02:06:48.824Z,0
2017-01-17T02:07:54.019Z,0
2017-01-17T02:08:59.215Z,0
2017-01-17T02:10:04.525Z,0
2017-01-17T02:11:08.711Z,0
2017-01-17T02:12:13.936Z,0
2017-01-17T02:13:19.185Z,0
2017-01-17T02:14:24.396Z,0
2017-01-17T02:15:29.596Z,0
2017-01-17T02:16:35.760Z,0
2017-01-17T02:17:40.953Z,0
2017-01-17T02:18:46.187Z,0
2017-01-17T02:19:50.422Z,0
2017-01-17T02:20:56.587Z,0
2017-01-17T02:22:02.747Z,0
2017-01-17T02:23:08.998Z,0
2017-01-17T02:24:15.161Z,0
2017-01-17T02:25:21.316Z,0
2017-01-17T02:26:26.521Z,0
2017-01-17T02:27:32.656Z,0
2017-01-17T02:28:37.955Z,0
2017-01-17T02:29:43.151Z,0
2017-01-17T02:30:48.320Z,0
2017-01-17T02:31:53.520Z,0
2017-01-17T02:32:57.718Z,0
2017-01-17T02:34:02.911Z,0
2017-01-17T02:35:08.219Z,0
2017-01-17T02:36:13.406Z,0
2017-01-17T02:37:16.665Z,0
2017-01-17T02:38:22.824Z,0
2017-01-17T02:39:28.023Z,0
2017-01-17T02:40:33.217Z,0
2017-01-17T02:41:38.416Z,0
2017-01-17T02:42:44.585Z,0
2017-01-17T02:43:50.736Z,0
2017-01-17T02:44:54.931Z,0
2017-01-17T02:46:00.125Z,0
2017-01-17T02:47:04.361Z,0
2017-01-17T02:48:09.550Z,0
2017-01-17T02:49:13.795Z,0
2017-01-17T02:50:20.082Z,0
2017-01-17T02:51:25.264Z,0
2017-01-17T02:52:31.443Z,0
2017-01-17T02:53:35.681Z,0
2017-01-17T02:54:41.850Z,0
2017-01-17T02:55:46.375Z,0
2017-01-17T02:56:52.565Z,0
2017-01-17T02:57:55.796Z,0
2017-01-17T02:59:02.088Z,0
2017-01-17T03:00:08.225Z,0
2017-01-17T03:01:14.401Z,0
2017-01-17T03:02:19.593Z,0
2017-01-17T03:03:24.785Z,0
2017-01-17T03:04:30.024Z,0
2017-01-17T03:05:35.241Z,0
2017-01-17T03:06:38.489Z,0
2017-01-17T03:07:41.725Z,0
2017-01-17T03:08:47.897Z,0
2017-01-17T03:09:54.058Z,0
2017-01-17T03:11:00.331Z,0
2017-01-17T03:12:06.595Z,0
2017-01-17T03:13:11.399Z,0
2017-01-17T03:14:16.569Z,0
2017-01-17T03:15:20.776Z,0
2017-01-17T03:16:26.940Z,0
2017-01-17T03:17:33.107Z,0
2017-01-17T03:18:38.301Z,0
2017-01-17T03:19:43.492Z,0
2017-01-17T03:20:48.703Z,0
2017-01-17T03:21:53.637Z,0
2017-01-17T03:22:58.904Z,0
2017-01-17T03:24:04.777Z,0
2017-01-17T03:25:10.983Z,0
2017-01-17T03:26:16.140Z,0
2017-01-17T03:27:22.303Z,0
2017-01-17T03:28:26.509Z,0
2017-01-17T03:29:32.665Z,0
2017-01-17T03:30:37.883Z,0
2017-01-17T03:31:44.060Z,0
2017-01-17T03:32:49.236Z,0
2017-01-17T03:33:52.565Z,0
2017-01-17T03:34:57.752Z,0
2017-01-17T03:36:02.080Z,0
2017-01-17T03:37:08.239Z,0
2017-01-17T03:38:12.499Z,0
2017-01-17T03:39:18.620Z,0
2017-01-17T03:40:24.779Z,0
2017-01-17T03:41:29.975Z,0
2017-01-17T03:42:35.218Z,0
2017-01-17T03:43:40.430Z,0
2017-01-17T03:44:45.623Z,0
2017-01-17T03:45:49.846Z,0
2017-01-17T03:46:55.034Z,0
2017-01-17T03:48:01.205Z,0
2017-01-17T03:49:07.372Z,0
2017-01-17T03:50:13.537Z,0
2017-01-17T03:51:18.707Z,0
2017-01-17T03:52:23.934Z,0
2017-01-17T03:53:30.056Z,0
2017-01-17T03:54:34.256Z,0
2017-01-17T03:55:40.417Z,0
2017-01-17T03:56:45.631Z,0
2017-01-17T03:57:51.811Z,0
2017-01-17T03:58:57.973Z,0
2017-01-17T04:00:04.132Z,0
2017-01-17T04:01:10.296Z,0
2017-01-17T04:02:15.487Z,0
2017-01-17T04:03:19.719Z,0
2017-01-17T04:04:23.928Z,0
2017-01-17T04:05:29.096Z,0
2017-01-17T04:06:34.259Z,0
2017-01-17T04:07:40.419Z,0
2017-01-17T04:09:48.932Z,0
2017-01-17T04:10:54.096Z,0
2017-01-17T04:11:59.285Z,0
2017-01-17T04:13:04.483Z,0
2017-01-17T04:14:10.686Z,0
2017-01-17T04:15:15.894Z,0
2017-01-17T04:16:21.182Z,0
2017-01-17T04:17:27.343Z,0
2017-01-17T04:18:32.535Z,0
2017-01-17T04:19:37.772Z,0
2017-01-17T04:20:42.986Z,0
2017-01-17T04:21:49.159Z,0
2017-01-17T04:22:55.314Z,0
2017-01-17T04:23:59.511Z,0
2017-01-17T04:25:04.790Z,0
2017-01-17T04:26:09.981Z,0
2017-01-17T04:27:16.153Z,0
2017-01-17T04:28:22.323Z,0
2017-01-17T04:29:28.484Z,0
2017-01-17T04:30:33.652Z,0
2017-01-17T04:31:38.880Z,0
2017-01-17T04:32:44.104Z,0
2017-01-17T04:33:48.309Z,0
2017-01-17T04:34:53.547Z,0
2017-01-17T04:35:58.716Z,0
2017-01-17T04:37:04.914Z,0
2017-01-17T04:38:10.084Z,0
2017-01-17T04:39:16.242Z,0
2017-01-17T04:40:22.439Z,0
2017-01-17T04:41:27.595Z,0
2017-01-17T04:42:33.759Z,0
2017-01-17T04:43:39.918Z,0
2017-01-17T04:44:45.108Z,0
2017-01-17T04:45:51.350Z,0
2017-01-17T04:46:57.519Z,0
2017-01-17T04:48:02.709Z,0
2017-01-17T04:49:08.864Z,0
2017-01-17T04:50:14.056Z,0
2017-01-17T04:51:19.254Z,0
2017-01-17T04:52:25.133Z,0
2017-01-17T04:53:29.471Z,0
2017-01-17T04:54:34.672Z,0
2017-01-17T04:55:40.844Z,0
2017-01-17T04:56:46.040Z,0
2017-01-17T04:57:51.226Z,0
2017-01-17T04:58:57.397Z,0
2017-01-17T05:00:02.618Z,0
2017-01-17T05:01:08.782Z,0
2017-01-17T05:02:13.948Z,0
2017-01-17T05:03:17.201Z,0
2017-01-17T05:04:22.381Z,0
2017-01-17T05:05:28.562Z,0
2017-01-17T05:06:32.764Z,0
2017-01-17T05:07:38.934Z,0
2017-01-17T05:08:43.140Z,0
2017-01-17T05:09:47.327Z,0
2017-01-17T05:10:53.591Z,0
2017-01-17T05:11:58.793Z,0
2017-01-17T05:13:04.957Z,0
2017-01-17T05:14:09.187Z,0
2017-01-17T05:15:13.408Z,0
2017-01-17T05:16:18.640Z,0
2017-01-17T05:17:21.875Z,0
2017-01-17T05:18:27.073Z,0
2017-01-17T05:19:31.294Z,0
2017-01-17T05:20:36.462Z,0
2017-01-17T05:21:42.619Z,0
2017-01-17T05:22:47.814Z,0
2017-01-17T05:23:54.011Z,0
2017-01-17T05:25:00.389Z,0
2017-01-17T05:26:06.546Z,0
2017-01-17T05:27:10.738Z,0
2017-01-17T05:28:16.014Z,0
2017-01-17T05:29:19.271Z,0
2017-01-17T05:30:25.430Z,0
2017-01-17T05:31:31.596Z,0
2017-01-17T05:32:37.813Z,0
2017-01-17T05:33:43.003Z,0
2017-01-17T05:34:49.167Z,0
2017-01-17T05:35:54.360Z,0
2017-01-17T05:36:59.528Z,0
2017-01-17T05:38:05.713Z,0
2017-01-17T05:39:11.851Z,0
2017-01-17T05:40:18.004Z,0
2017-01-17T05:41:22.225Z,0
2017-01-17T05:42:28.391Z,0
2017-01-17T05:43:32.629Z,0
2017-01-17T05:44:38.781Z,0
2017-01-17T05:45:43.971Z,0
2017-01-17T05:46:49.165Z,0
2017-01-17T05:47:54.322Z,0
2017-01-17T05:49:00.485Z,0
2017-01-17T05:50:04.830Z,0
2017-01-17T05:51:10.070Z,0
2017-01-17T05:52:16.260Z,0
2017-01-17T05:53:22.421Z,0
2017-01-17T05:54:27.611Z,0
2017-01-17T05:55:33.833Z,0
2017-01-17T05:56:38.052Z,0
2017-01-17T05:57:43.246Z,0
2017-01-17T05:58:47.488Z,0
2017-01-17T05:59:51.701Z,0
2017-01-17T06:00:57.846Z,0
2017-01-17T06:02:04.094Z,0
2017-01-17T06:03:09.269Z,0
2017-01-17T06:04:15.428Z,0
2017-01-17T06:05:21.596Z,0
2017-01-17T06:06:27.751Z,0
2017-01-17T06:07:32.916Z,0
2017-01-17T06:08:37.117Z,0
2017-01-17T06:09:42.420Z,0
2017-01-17T06:10:47.568Z,0
2017-01-17T06:11:52.760Z,0
2017-01-17T06:12:58.931Z,0
2017-01-17T06:14:02.179Z,0
2017-01-17T06:15:08.333Z,0
2017-01-17T06:16:13.528Z,0
2017-01-17T06:17:18.718Z,0
2017-01-17T06:18:23.912Z,0
2017-01-17T06:19:29.077Z,0
2017-01-17T06:20:34.278Z,0
2017-01-17T06:21:40.474Z,0
2017-01-17T06:22:46.608Z,0
2017-01-17T06:23:52.772Z,0
2017-01-17T06:24:58.029Z,0
2017-01-17T06:26:04.189Z,0
2017-01-17T06:27:09.465Z,0
2017-01-17T06:28:15.636Z,0
2017-01-17T06:29:20.826Z,0
2017-01-17T06:30:26.023Z,0
2017-01-17T06:31:29.295Z,0
2017-01-17T06:32:34.488Z,0
2017-01-17T06:33:40.654Z,0
2017-01-17T06:34:43.886Z,0
2017-01-17T06:35:48.183Z,0
2017-01-17T06:36:54.332Z,0
2017-01-17T06:37:59.528Z,0
2017-01-17T06:39:03.734Z,0
2017-01-17T06:40:09.893Z,0
2017-01-17T06:41:15.093Z,0
2017-01-17T06:42:21.265Z,0
2017-01-17T06:43:26.458Z,0
2017-01-17T06:44:31.625Z,0
2017-01-17T06:45:36.822Z,0
2017-01-17T06:46:41.092Z,0
2017-01-17T06:47:47.262Z,0
2017-01-17T06:48:53.424Z,0
2017-01-17T06:49:58.597Z,0
2017-01-17T06:51:03.763Z,0
2017-01-17T06:52:09.008Z,0
2017-01-17T06:53:15.176Z,0
2017-01-17T06:54:20.381Z,0
2017-01-17T06:55:25.553Z,0
2017-01-17T06:56:31.713Z,0
2017-01-17T06:57:36.907Z,0
2017-01-17T06:58:43.085Z,0
2017-01-17T06:59:47.404Z,0
2017-01-17T07:00:52.689Z,0
2017-01-17T07:01:58.850Z,0
2017-01-17T07:03:04.024Z,0
2017-01-17T07:04:09.216Z,0
2017-01-17T07:05:13.445Z,0
2017-01-17T07:06:18.699Z,0
2017-01-17T07:07:24.878Z,0
2017-01-17T07:08:30.058Z,0
2017-01-17T07:09:35.254Z,0
2017-01-17T07:10:39.456Z,0
2017-01-17T07:11:43.684Z,0
2017-01-17T07:12:48.860Z,0
2017-01-17T07:13:55.026Z,0
2017-01-17T07:15:00.219Z,0
2017-01-17T07:16:06.393Z,0
2017-01-17T07:17:11.583Z,0
2017-01-17T07:18:17.082Z,0
2017-01-17T07:19:21.278Z,0
2017-01-17T07:20:26.443Z,0
2017-01-17T07:21:29.694Z,0
2017-01-17T07:22:34.900Z,5
2017-01-17T07:23:41.072Z,5
2017-01-17T07:24:47.269Z,5
2017-01-17T07:25:53.465Z,5
2017-01-17T07:26:58.669Z,5
2017-01-17T07:28:04.920Z,5
2017-01-17T07:29:10.112Z,5
2017-01-17T07:30:16.274Z,5
2017-01-17T07:31:21.441Z,5
2017-01-17T07:32:27.651Z,5
2017-01-17T07:33:33.856Z,10
2017-01-17T07:34:40.018Z,10
2017-01-17T07:35:45.216Z,10
2017-01-17T07:36:50.407Z,10
2017-01-17T07:37:54.634Z,10
2017-01-17T07:38:58.862Z,10
2017-01-17T07:40:05.026Z,10
2017-01-17T07:41:08.273Z,10
2017-01-17T07:42:14.494Z,10
2017-01-17T07:43:19.676Z,15
2017-01-17T07:44:24.868Z,15
2017-01-17T07:45:31.034Z,15
2017-01-17T07:46:37.266Z,15
2017-01-17T07:47:42.542Z,15
2017-01-17T07:48:46.768Z,15
2017-01-17T07:49:52.925Z,15
2017-01-17T07:50:56.196Z,15
2017-01-17T07:52:02.356Z,15
2017-01-17T07:53:07.575Z,15
2017-01-17T07:54:11.807Z,15
2017-01-17T07:55:18.101Z,20
2017-01-17T07:56:23.194Z,25
2017-01-17T07:57:29.366Z,25
2017-01-17T07:58:33.565Z,25
2017-01-17T07:59:39.807Z,25
2017-01-17T08:00:45.969Z,25
2017-01-17T08:01:50.252Z,30
2017-01-17T08:02:56.480Z,30
2017-01-17T08:04:00.683Z,35
2017-01-17T08:05:06.851Z,35
2017-01-17T08:06:12.052Z,35
2017-01-17T08:07:17.220Z,35
2017-01-17T08:08:23.385Z,35
2017-01-17T08:09:27.607Z,35
2017-01-17T08:10:31.871Z,40
2017-01-17T08:11:37.068Z,40
2017-01-17T08:12:43.683Z,40
2017-01-17T08:13:49.251Z,40
2017-01-17T08:14:55.129Z,45
2017-01-17T08:16:00.998Z,40
2017-01-17T08:17:07.560Z,40
2017-01-17T08:18:12.217Z,40
2017-01-17T08:20:23.330Z,50
2017-01-17T08:21:28.585Z,50
2017-01-17T08:22:33.848Z,50
2017-01-17T08:23:38.180Z,55
2017-01-17T08:24:43.370Z,55
2017-01-17T08:25:48.557Z,55
2017-01-17T08:26:53.730Z,55
2017-01-17T08:27:59.925Z,60
2017-01-17T08:29:06.051Z,65
2017-01-17T08:30:11.348Z,65
2017-01-17T08:31:17.514Z,70
2017-01-17T08:32:21.722Z,70
2017-01-17T08:33:26.981Z,70
2017-01-17T08:34:32.314Z,70
2017-01-17T08:35:36.546Z,80
2017-01-17T08:36:42.703Z,90
2017-01-17T08:37:47.862Z,90
2017-01-17T08:38:52.092Z,85
2017-01-17T08:39:58.250Z,80
2017-01-17T08:41:04.519Z,85
2017-01-17T08:42:09.664Z,90
2017-01-17T08:43:12.894Z,85
2017-01-17T08:44:18.057Z,85
2017-01-17T08:45:22.294Z,90
2017-01-17T08:46:28.476Z,85
2017-01-17T08:47:34.608Z,80
2017-01-17T08:48:39.802Z,85
2017-01-17T08:49:44.058Z,85
2017-01-17T08:50:49.221Z,80
2017-01-17T08:51:55.392Z,80
2017-01-17T08:53:00.604Z,80
2017-01-17T08:54:04.794Z,80
2017-01-17T08:55:08.033Z,80
2017-01-17T08:56:14.197Z,80
2017-01-17T08:57:17.439Z,80
2017-01-17T08:58:22.654Z,80
2017-01-17T08:59:27.838Z,80
2017-01-17T09:00:32.068Z,80
2017-01-17T09:01:38.236Z,75
2017-01-17T09:02:43.426Z,85
2017-01-17T09:03:49.599Z,85
2017-01-17T09:04:54.485Z,85
2017-01-17T09:06:00.653Z,90
2017-01-17T09:07:06.822Z,90
2017-01-17T09:08:12.987Z,85
2017-01-17T09:09:17.188Z,85
2017-01-17T09:10:23.354Z,95
2017-01-17T09:11:28.562Z,90
2017-01-17T09:12:34.712Z,90
2017-01-17T09:13:38.943Z,90
2017-01-17T09:14:45.196Z,95
2017-01-17T09:15:50.498Z,90
2017-01-17T09:16:56.716Z,95
2017-01-17T09:18:02.817Z,100
2017-01-17T09:19:08.994Z,100
2017-01-17T09:20:15.153Z,105
2017-01-17T09:21:20.321Z,105
2017-01-17T09:22:25.516Z,100
2017-01-17T09:23:31.676Z,100
2017-01-17T09:24:35.905Z,110
2017-01-17T09:25:41.095Z,115
2017-01-17T09:26:46.345Z,120
2017-01-17T09:27:52.496Z,120
2017-01-17T09:28:57.695Z,130
2017-01-17T09:30:02.884Z,125
2017-01-17T09:31:09.050Z,115
2017-01-17T09:32:14.250Z,120
2017-01-17T09:33:19.562Z,115
2017-01-17T09:34:24.729Z,115
2017-01-17T09:35:30.905Z,120
2017-01-17T09:36:37.058Z,125
2017-01-17T09:37:42.228Z,130
2017-01-17T09:38:47.426Z,145
2017-01-17T09:39:51.653Z,160
2017-01-17T09:40:57.833Z,165
2017-01-17T09:42:03.994Z,170
2017-01-17T09:43:07.228Z,170
2017-01-17T09:44:10.464Z,170
2017-01-17T09:45:14.665Z,165
2017-01-17T09:46:18.900Z,155
2017-01-17T09:47:25.069Z,145
2017-01-17T09:48:30.250Z,145
2017-01-17T09:49:35.452Z,155
2017-01-17T09:50:40.608Z,165
2017-01-17T09:51:45.791Z,160
2017-01-17T09:52:50.021Z,155
2017-01-17T09:53:55.219Z,145
2017-01-17T09:55:01.375Z,140
2017-01-17T09:56:07.545Z,140
2017-01-17T09:57:13.718Z,140
2017-01-17T09:58:19.881Z,140
2017-01-17T09:59:26.045Z,140
2017-01-17T10:00:30.247Z,140
2017-01-17T10:01:34.474Z,140
2017-01-17T10:02:40.638Z,135
2017-01-17T10:03:46.803Z,135
2017-01-17T10:04:51.997Z,140
2017-01-17T10:05:57.196Z,145
2017-01-17T10:07:02.391Z,145
2017-01-17T10:08:05.629Z,150
2017-01-17T10:09:11.816Z,150
2017-01-17T10:10:18.057Z,160
2017-01-17T10:11:23.232Z,155
2017-01-17T10:12:27.458Z,150
2017-01-17T10:13:33.618Z,155
2017-01-17T10:14:39.777Z,165
2017-01-17T10:15:44.969Z,180
2017-01-17T10:16:49.198Z,170
2017-01-17T10:17:53.401Z,170
2017-01-17T10:18:58.642Z,170
2017-01-17T10:20:03.812Z,165
2017-01-17T10:21:09.977Z,170
2017-01-17T10:22:16.140Z,180
2017-01-17T10:23:21.331Z,160
2017-01-17T10:24:27.499Z,150
2017-01-17T10:25:32.708Z,145
2017-01-17T10:26:36.927Z,140
2017-01-17T10:27:42.096Z,140
2017-01-17T10:28:46.295Z,140
2017-01-17T10:29:51.489Z,140
2017-01-17T10:30:57.664Z,135
2017-01-17T10:32:03.825Z,130
2017-01-17T10:33:09.108Z,130
2017-01-17T10:34:14.310Z,125
2017-01-17T10:35:19.521Z,125
2017-01-17T10:36:23.722Z,125
2017-01-17T10:37:27.953Z,130
2017-01-17T10:38:34.134Z,130
2017-01-17T10:39:40.293Z,140
2017-01-17T10:40:45.458Z,145
2017-01-17T10:41:51.754Z,145
2017-01-17T10:42:56.956Z,145
2017-01-17T10:44:02.187Z,145
2017-01-17T10:45:08.321Z,155
2017-01-17T10:46:14.488Z,160
2017-01-17T10:47:20.652Z,155
2017-01-17T10:48:26.830Z,145
2017-01-17T10:49:32.996Z,145
2017-01-17T10:50:36.230Z,145
2017-01-17T10:51:42.392Z,145
2017-01-17T10:52:47.585Z,150
2017-01-17T10:53:52.776Z,145
2017-01-17T10:54:56.975Z,140
2017-01-17T10:56:02.218Z,140
2017-01-17T10:57:08.363Z,140
2017-01-17T10:58:12.610Z,145
2017-01-17T10:59:17.850Z,140
2017-01-17T11:00:22.077Z,145
2017-01-17T11:01:28.200Z,150
2017-01-17T11:02:31.460Z,155
2017-01-17T11:03:37.622Z,160
2017-01-17T11:04:42.817Z,155
2017-01-17T11:05:48.015Z,160
2017-01-17T11:06:53.209Z,155
2017-01-17T11:07:58.422Z,150
2017-01-17T11:09:04.609Z,150
2017-01-17T11:10:08.837Z,145
2017-01-17T11:11:14.996Z,140
2017-01-17T11:12:19.250Z,135
2017-01-17T11:13:25.384Z,135
2017-01-17T11:14:31.560Z,125
2017-01-17T11:15:36.739Z,120
2017-01-17T11:16:42.905Z,120
2017-01-17T11:17:48.116Z,115
2017-01-17T11:18:53.314Z,110
2017-01-17T11:19:58.506Z,115
2017-01-17T11:21:04.678Z,110
2017-01-17T11:22:09.899Z,110
2017-01-17T11:23:16.061Z,115
2017-01-17T11:24:20.290Z,115
2017-01-17T11:25:26.503Z,125
2017-01-17T11:26:31.701Z,130
2017-01-17T11:27:37.874Z,125
2017-01-17T11:28:41.126Z,125
2017-01-17T11:29:45.361Z,140
2017-01-17T11:30:50.517Z,145
2017-01-17T11:31:54.764Z,145
2017-01-17T11:32:59.009Z,150
2017-01-17T11:34:04.205Z,150
2017-01-17T11:35:10.374Z,150
2017-01-17T11:36:13.611Z,150
2017-01-17T11:37:18.813Z,145
2017-01-17T11:38:24.974Z,140
2017-01-17T11:39:31.143Z,140
2017-01-17T11:40:36.481Z,140
2017-01-17T11:41:42.606Z,145
2017-01-17T11:42:48.788Z,150
2017-01-17T11:43:54.968Z,145
2017-01-17T11:45:00.170Z,150
2017-01-17T11:46:04.402Z,155
2017-01-17T11:47:10.591Z,160
2017-01-17T11:48:15.824Z,155
2017-01-17T11:49:20.011Z,150
2017-01-17T11:50:25.282Z,145
2017-01-17T11:51:30.484Z,150
2017-01-17T11:52:34.713Z,145
2017-01-17T11:53:39.894Z,155
2017-01-17T11:54:45.139Z,160
2017-01-17T11:55:50.289Z,170
2017-01-17T11:56:55.459Z,165
2017-01-17T11:57:59.685Z,165
2017-01-17T11:59:03.927Z,170
2017-01-17T12:00:09.108Z,170
2017-01-17T12:01:13.317Z,115
2017-01-17T12:02:19.491Z,175
2017-01-17T12:03:24.672Z,180
2017-01-17T12:04:29.871Z,180
2017-01-17T12:05:36.047Z,180
2017-01-17T12:06:41.244Z,175
2017-01-17T12:07:47.416Z,175
2017-01-17T12:08:51.638Z,170
2017-01-17T12:09:56.828Z,165
2017-01-17T12:11:02.989Z,165
2017-01-17T12:12:08.162Z,160
2017-01-17T12:13:12.511Z,160
2017-01-17T12:14:17.781Z,155
2017-01-17T12:15:22.082Z,150
2017-01-17T12:16:28.249Z,140
2017-01-17T12:17:33.447Z,150
2017-01-17T12:18:37.677Z,140
2017-01-17T12:19:43.922Z,150
2017-01-17T12:20:47.176Z,130
2017-01-17T12:21:52.348Z,140
2017-01-17T12:22:56.582Z,140
2017-01-17T12:24:01.817Z,130
2017-01-17T12:25:05.041Z,120
2017-01-17T12:26:11.201Z,130
2017-01-17T12:27:17.377Z,90
2017-01-17T12:28:23.548Z,85
2017-01-17T12:29:28.726Z,70
2017-01-17T12:30:33.919Z,75
2017-01-17T12:31:40.080Z,80
2017-01-17T12:32:45.276Z,85
2017-01-17T12:33:49.478Z,85
2017-01-17T12:34:53.701Z,110
2017-01-17T12:35:58.901Z,135
2017-01-17T12:37:05.056Z,135
2017-01-17T12:38:10.254Z,135
2017-01-17T12:39:16.518Z,135
2017-01-17T12:40:21.713Z,140
2017-01-17T12:41:25.919Z,140
2017-01-17T12:42:31.117Z,140
2017-01-17T12:43:36.312Z,140
2017-01-17T12:44:42.480Z,140
2017-01-17T12:45:48.653Z,140
2017-01-17T12:46:53.836Z,140
2017-01-17T12:47:59.027Z,140
2017-01-17T12:49:05.260Z,140
2017-01-17T12:50:10.460Z,135
2017-01-17T12:51:15.684Z,140
2017-01-17T12:52:21.887Z,145
2017-01-17T12:53:27.096Z,145
2017-01-17T12:54:33.249Z,145
2017-01-17T12:55:38.444Z,150
2017-01-17T12:56:44.605Z,155
2017-01-17T12:57:49.800Z,165
2017-01-17T12:58:55.042Z,170
2017-01-17T13:00:01.255Z,170
2017-01-17T13:01:05.497Z,170
2017-01-17T13:02:10.699Z,175
2017-01-17T13:03:15.890Z,180
2017-01-17T13:04:22.056Z,185
2017-01-17T13:05:28.218Z,180
2017-01-17T13:06:34.515Z,170
2017-01-17T13:07:38.096Z,175
2017-01-17T13:08:43.291Z,175
2017-01-17T13:09:49.464Z,170
2017-01-17T13:10:55.624Z,165
2017-01-17T13:12:01.793Z,150
2017-01-17T13:13:06.056Z,150
2017-01-17T13:14:11.230Z,160
2017-01-17T13:15:15.433Z,160
2017-01-17T13:16:19.626Z,155
2017-01-17T13:17:24.915Z,150
2017-01-17T13:18:31.086Z,155
2017-01-17T13:19:36.252Z,155
2017-01-17T13:20:41.452Z,150
2017-01-17T13:21:47.611Z,150
2017-01-17T13:22:53.772Z,150
2017-01-17T13:23:58.000Z,150
2017-01-17T13:25:02.208Z,155
2017-01-17T13:26:05.449Z,155
2017-01-17T13:27:10.746Z,155
2017-01-17T13:28:17.026Z,155
2017-01-17T13:29:23.150Z,140
2017-01-17T13:30:29.315Z,140
2017-01-17T13:31:34.508Z,135
2017-01-17T13:32:39.713Z,135
2017-01-17T13:33:45.926Z,135
2017-01-17T13:34:51.208Z,140
2017-01-17T13:35:56.360Z,145
2017-01-17T13:37:02.496Z,150
2017-01-17T13:38:06.732Z,145
2017-01-17T13:39:11.899Z,140
2017-01-17T13:40:18.062Z,135
2017-01-17T13:41:22.371Z,135
2017-01-17T13:42:26.490Z,135
2017-01-17T13:43:31.671Z,135
2017-01-17T13:44:37.831Z,135
2017-01-17T13:45:44.007Z,135
2017-01-17T13:46:50.172Z,145
2017-01-17T13:47:55.364Z,140
2017-01-17T13:49:01.536Z,135
2017-01-17T13:50:04.790Z,135
2017-01-17T13:51:10.044Z,135
2017-01-17T13:52:16.201Z,135
2017-01-17T13:53:22.392Z,145
2017-01-17T13:54:25.671Z,160
2017-01-17T13:55:31.829Z,160
2017-01-17T13:56:37.987Z,160
2017-01-17T13:57:43.188Z,160
2017-01-17T13:58:48.388Z,145
2017-01-17T13:59:54.597Z,130
2017-01-17T14:00:58.847Z,125
2017-01-17T14:02:04.060Z,115
2017-01-17T14:03:10.265Z,110
2017-01-17T14:04:15.466Z,105
2017-01-17T14:05:20.636Z,100
2017-01-17T14:06:25.836Z,95
2017-01-17T14:07:31.026Z,95
2017-01-17T14:08:36.228Z,95
2017-01-17T14:09:41.429Z,105
2017-01-17T14:10:45.901Z,105
2017-01-17T14:11:50.120Z,105
2017-01-17T14:12:56.363Z,115
2017-01-17T14:14:02.524Z,110
2017-01-17T14:15:07.702Z,105
2017-01-17T14:16:11.934Z,95
2017-01-17T14:17:16.189Z,90
2017-01-17T14:18:19.449Z,85
2017-01-17T14:19:25.680Z,80
2017-01-17T14:20:31.836Z,70
2017-01-17T14:21:38.005Z,90
2017-01-17T14:22:43.191Z,90
2017-01-17T14:23:49.378Z,90
2017-01-17T14:24:54.289Z,95
2017-01-17T14:25:58.262Z,95
2017-01-17T14:27:01.511Z,90
2017-01-17T14:28:07.682Z,85
2017-01-17T14:29:12.874Z,85
2017-01-17T14:30:19.100Z,85
2017-01-17T14:31:24.326Z,90
2017-01-17T14:32:30.490Z,90
2017-01-17T14:33:36.657Z,90
2017-01-17T14:34:42.818Z,85
2017-01-17T14:35:49.005Z,80
2017-01-17T14:36:53.299Z,80
2017-01-17T14:37:59.456Z,80
2017-01-17T14:39:05.620Z,75
2017-01-17T14:40:11.792Z,80
2017-01-17T14:41:16.992Z,75
2017-01-17T14:42:21.226Z,75
2017-01-17T14:43:25.429Z,70
2017-01-17T14:44:31.591Z,70
2017-01-17T14:45:35.822Z,65
2017-01-17T14:46:40.998Z,65
2017-01-17T14:47:47.160Z,65
2017-01-17T14:48:52.362Z,65
2017-01-17T14:49:58.577Z,60
2017-01-17T14:51:02.805Z,60
2017-01-17T14:52:08.968Z,60
2017-01-17T14:53:14.817Z,55
2017-01-17T14:54:20.016Z,55
2017-01-17T14:55:24.380Z,55
2017-01-17T14:56:29.573Z,55
2017-01-17T14:57:33.791Z,60
2017-01-17T14:58:38.001Z,60
2017-01-17T14:59:44.170Z,55
2017-01-17T15:00:50.342Z,50
2017-01-17T15:01:56.500Z,50
2017-01-17T15:03:02.666Z,50
2017-01-17T15:04:08.842Z,50
2017-01-17T15:05:14.062Z,50
2017-01-17T15:06:19.255Z,50
2017-01-17T15:07:24.540Z,45
2017-01-17T15:08:29.746Z,45
2017-01-17T15:09:34.990Z,45
2017-01-17T15:10:39.194Z,45
2017-01-17T15:11:43.398Z,45
2017-01-17T15:12:48.596Z,45
2017-01-17T15:13:51.868Z,45
2017-01-17T15:14:56.080Z,40
2017-01-17T15:16:01.280Z,40
2017-01-17T15:17:06.458Z,40
2017-01-17T15:18:11.743Z,35
2017-01-17T15:19:17.910Z,35
2017-01-17T15:20:23.159Z,35
2017-01-17T15:21:27.359Z,35
2017-01-17T15:22:32.550Z,35
2017-01-17T15:23:37.724Z,30
2017-01-17T15:24:41.919Z,30
2017-01-17T15:25:46.151Z,30
2017-01-17T15:26:49.435Z,25
2017-01-17T15:27:54.731Z,25
2017-01-17T15:29:00.484Z,25
2017-01-17T15:30:05.700Z,25
2017-01-17T15:31:08.966Z,20
2017-01-17T15:32:14.144Z,20
2017-01-17T15:33:19.330Z,20
2017-01-17T15:34:24.531Z,15
2017-01-17T15:35:29.731Z,15
2017-01-17T15:36:33.966Z,15
2017-01-17T15:37:38.284Z,15
2017-01-17T15:38:43.478Z,15
2017-01-17T15:39:48.704Z,15